createdAt,value
2019-05-02T00:00:03.336Z,12.80
2019-05-02T00:01:03.340Z,11.60
2019-05-02T00:02:03.318Z,12.20
2019-05-02T00:03:04.404Z,12.30
2019-05-02T00:04:03.307Z,12.00
2019-05-02T00:05:03.337Z,12.20
2019-05-02T00:06:07.514Z,11.70
2019-05-02T00:07:03.375Z,12.20
2019-05-02T00:08:03.342Z,11.80
2019-05-02T00:09:04.002Z,12.50
2019-05-02T00:10:03.344Z,13.00
2019-05-02T00:11:03.400Z,12.70
2019-05-02T00:12:03.401Z,12.10
2019-05-02T00:13:03.389Z,11.90
2019-05-02T00:14:03.387Z,12.10
2019-05-02T00:15:03.548Z,12.50
2019-05-02T00:16:03.480Z,12.70
2019-05-02T00:17:03.409Z,12.50
2019-05-02T00:18:03.403Z,12.30
2019-05-02T00:19:03.399Z,12.80
2019-05-02T00:20:03.404Z,12.80
2019-05-02T00:21:03.451Z,12.30
2019-05-02T00:22:03.473Z,12.40
2019-05-02T00:23:03.495Z,12.40
2019-05-02T00:24:04.221Z,12.20
2019-05-02T00:25:03.448Z,12.50
2019-05-02T00:26:03.440Z,11.90
2019-05-02T00:27:03.480Z,11.70
2019-05-02T00:28:07.639Z,12.80
2019-05-02T00:29:03.466Z,12.20
2019-05-02T00:30:03.478Z,12.10
2019-05-02T00:31:07.489Z,11.90
2019-05-02T00:32:03.488Z,12.40
2019-05-02T00:33:03.539Z,12.20
2019-05-02T00:34:03.510Z,12.40
2019-05-02T00:35:03.516Z,11.90
2019-05-02T00:36:04.758Z,11.30
2019-05-02T00:37:03.523Z,12.20
2019-05-02T00:38:03.853Z,11.30
2019-05-02T00:39:03.511Z,11.90
2019-05-02T00:40:03.518Z,11.40
2019-05-02T00:41:03.684Z,11.20
2019-05-02T00:42:12.334Z,11.40
2019-05-02T00:43:03.569Z,12.10
2019-05-02T00:44:05.995Z,11.90
2019-05-02T00:45:03.576Z,11.80
2019-05-02T00:46:03.562Z,11.90
2019-05-02T00:47:06.048Z,12.80
2019-05-02T00:48:03.573Z,12.50
2019-05-02T00:49:03.561Z,12.20
2019-05-02T00:50:06.309Z,12.20
2019-05-02T00:51:03.576Z,12.80
2019-05-02T00:52:03.584Z,12.40
2019-05-02T00:53:07.169Z,11.90
2019-05-02T00:54:03.588Z,12.20
2019-05-02T00:55:03.637Z,12.10
2019-05-02T00:56:05.096Z,12.40
2019-05-02T00:57:03.625Z,11.50
2019-05-02T00:58:03.662Z,11.70
2019-05-02T00:59:07.440Z,11.90
2019-05-02T01:00:03.631Z,11.20
2019-05-02T01:01:03.637Z,11.40
2019-05-02T01:02:05.487Z,11.50
2019-05-02T01:03:03.646Z,11.40
2019-05-02T01:04:03.706Z,11.80
2019-05-02T01:05:04.584Z,11.40
2019-05-02T01:06:03.719Z,11.70
2019-05-02T01:07:03.671Z,11.40
2019-05-02T01:08:03.671Z,11.00
2019-05-02T01:09:05.874Z,10.90
2019-05-02T01:10:03.681Z,11.00
2019-05-02T01:11:03.703Z,11.90
2019-05-02T01:12:08.354Z,11.00
2019-05-02T01:13:03.687Z,11.50
2019-05-02T01:14:03.681Z,11.60
2019-05-02T01:15:08.276Z,10.90
2019-05-02T01:16:03.696Z,10.90
2019-05-02T01:17:03.732Z,11.30
2019-05-02T01:18:06.210Z,10.80
2019-05-02T01:19:03.718Z,11.90
2019-05-02T01:20:03.740Z,11.40
2019-05-02T01:21:04.206Z,11.30
2019-05-02T01:22:03.891Z,12.20
2019-05-02T01:23:03.749Z,11.50
2019-05-02T01:24:04.404Z,12.60
2019-05-02T01:25:03.758Z,12.10
2019-05-02T01:26:03.767Z,13.00
2019-05-02T01:27:04.565Z,13.80
2019-05-02T01:28:03.756Z,13.80
2019-05-02T01:29:03.791Z,13.10
2019-05-02T01:30:06.047Z,13.00
2019-05-02T01:31:03.818Z,13.20
2019-05-02T01:32:03.839Z,12.60
2019-05-02T01:33:06.478Z,12.50
2019-05-02T01:34:03.798Z,12.20
2019-05-02T01:35:03.823Z,12.20
2019-05-02T01:36:06.462Z,12.80
2019-05-02T01:37:03.817Z,13.10
2019-05-02T01:38:03.892Z,12.20
2019-05-02T01:39:07.489Z,12.10
2019-05-02T01:40:03.840Z,12.10
2019-05-02T01:41:03.845Z,12.30
2019-05-02T01:42:05.323Z,10.90
2019-05-02T01:43:03.863Z,11.50
2019-05-02T01:44:03.910Z,12.50
2019-05-02T01:45:06.857Z,12.20
2019-05-02T01:46:03.877Z,12.40
2019-05-02T01:47:03.887Z,12.60
2019-05-02T01:48:05.018Z,13.00
2019-05-02T01:49:03.910Z,12.30
2019-05-02T01:50:03.878Z,13.70
2019-05-02T01:51:10.044Z,12.40
2019-05-02T01:52:03.911Z,12.20
2019-05-02T01:53:04.030Z,12.00
2019-05-02T01:54:05.016Z,11.40
2019-05-02T01:55:03.944Z,11.80
2019-05-02T01:56:03.957Z,11.90
2019-05-02T01:57:08.284Z,12.10
2019-05-02T01:58:03.923Z,12.60
2019-05-02T01:59:03.939Z,12.10
2019-05-02T02:00:04.223Z,13.20
2019-05-02T02:01:03.982Z,12.20
2019-05-02T02:02:03.941Z,11.90
2019-05-02T02:03:04.157Z,12.20
2019-05-02T02:04:04.004Z,12.80
2019-05-02T02:05:03.959Z,12.20
2019-05-02T02:06:08.226Z,12.60
2019-05-02T02:07:03.976Z,12.60
2019-05-02T02:08:04.028Z,12.50
2019-05-02T02:09:08.215Z,11.90
2019-05-02T02:10:04.017Z,11.40
2019-05-02T02:11:04.010Z,11.40
2019-05-02T02:12:04.954Z,11.10
2019-05-02T02:13:05.299Z,11.30
2019-05-02T02:14:07.302Z,11.20
2019-05-02T02:15:04.065Z,10.90
2019-05-02T02:16:04.623Z,11.30
2019-05-02T02:17:04.040Z,11.50
2019-05-02T02:18:04.051Z,11.60
2019-05-02T02:19:05.363Z,11.10
2019-05-02T02:20:04.069Z,11.50
2019-05-02T02:21:04.115Z,11.30
2019-05-02T02:22:04.419Z,11.40
2019-05-02T02:23:04.102Z,11.20
2019-05-02T02:24:04.098Z,11.90
2019-05-02T02:25:04.092Z,11.70
2019-05-02T02:26:06.884Z,11.90
2019-05-02T02:27:04.095Z,12.20
2019-05-02T02:28:04.112Z,11.80
2019-05-02T02:29:07.886Z,11.70
2019-05-02T02:30:04.106Z,11.40
2019-05-02T02:31:05.216Z,11.80
2019-05-02T02:32:04.152Z,12.00
2019-05-02T02:33:07.438Z,11.30
2019-05-02T02:34:04.141Z,11.40
2019-05-02T02:35:10.028Z,10.80
2019-05-02T02:36:04.179Z,11.20
2019-05-02T02:37:05.541Z,10.90
2019-05-02T02:38:04.179Z,11.60
2019-05-02T02:39:06.912Z,11.90
2019-05-02T02:40:04.167Z,12.20
2019-05-02T02:41:06.384Z,12.40
2019-05-02T02:42:04.213Z,12.30
2019-05-02T02:43:22.252Z,12.00
2019-05-02T02:44:04.188Z,11.80
2019-05-02T02:45:04.184Z,12.30
2019-05-02T02:46:04.208Z,13.10
2019-05-02T02:47:04.205Z,12.10
2019-05-02T02:48:04.260Z,12.60
2019-05-02T02:49:04.230Z,13.50
2019-05-02T02:50:05.322Z,13.40
2019-05-02T02:51:04.222Z,13.30
2019-05-02T02:52:05.380Z,13.00
2019-05-02T02:53:04.237Z,13.00
2019-05-02T02:54:05.800Z,13.40
2019-05-02T02:55:04.247Z,12.50
2019-05-02T02:56:04.310Z,12.70
2019-05-02T02:57:04.263Z,11.50
2019-05-02T02:58:06.351Z,12.10
2019-05-02T02:59:04.284Z,11.60
2019-05-02T03:00:07.751Z,11.80
2019-05-02T03:01:04.291Z,11.40
2019-05-02T03:02:10.073Z,11.30
2019-05-02T03:03:04.336Z,11.20
2019-05-02T03:04:09.117Z,11.20
2019-05-02T03:05:04.304Z,10.80
2019-05-02T03:06:05.387Z,11.10
2019-05-02T03:07:04.331Z,10.70
2019-05-02T03:08:05.423Z,10.10
2019-05-02T03:09:04.321Z,9.70
2019-05-02T03:10:06.165Z,9.50
2019-05-02T03:11:04.348Z,10.60
2019-05-02T03:12:04.627Z,10.60
2019-05-02T03:13:04.373Z,10.60
2019-05-02T03:14:06.858Z,10.70
2019-05-02T03:15:04.349Z,10.60
2019-05-02T03:16:07.213Z,10.20
2019-05-02T03:17:04.379Z,10.90
2019-05-02T03:18:04.380Z,10.90
2019-05-02T03:19:04.408Z,10.90
2019-05-02T03:20:04.418Z,10.70
2019-05-02T03:21:04.408Z,10.80
2019-05-02T03:22:04.396Z,10.60
2019-05-02T03:23:04.389Z,10.10
2019-05-02T03:24:05.819Z,9.90
2019-05-02T03:25:04.401Z,10.20
2019-05-02T03:26:07.858Z,10.00
2019-05-02T03:27:04.428Z,9.60
2019-05-02T03:28:04.473Z,9.00
2019-05-02T03:29:04.435Z,9.90
2019-05-02T03:30:04.449Z,9.20
2019-05-02T03:31:21.836Z,9.60
2019-05-02T03:32:14.594Z,9.10
2019-05-02T03:33:10.383Z,9.40
2019-05-02T03:34:04.469Z,9.20
2019-05-02T03:35:04.577Z,9.00
2019-05-02T03:36:04.620Z,8.90
2019-05-02T03:37:10.171Z,9.20
2019-05-02T03:38:04.585Z,8.90
2019-05-02T03:39:13.269Z,8.40
2019-05-02T03:40:04.492Z,9.00
2019-05-02T03:41:04.489Z,8.80
2019-05-02T03:42:05.105Z,8.60
2019-05-02T03:43:04.530Z,8.90
2019-05-02T03:44:11.016Z,8.20
2019-05-02T03:45:05.255Z,9.10
2019-05-02T03:46:04.551Z,8.50
2019-05-02T03:47:04.959Z,8.60
2019-05-02T03:48:04.530Z,9.00
2019-05-02T03:49:07.522Z,9.00
2019-05-02T03:50:08.628Z,8.90
2019-05-02T03:51:05.236Z,8.50
2019-05-02T03:52:05.822Z,8.90
2019-05-02T03:53:04.600Z,8.70
2019-05-02T03:54:07.605Z,8.90
2019-05-02T03:55:04.606Z,8.60
2019-05-02T03:56:10.674Z,8.80
2019-05-02T03:57:04.602Z,9.20
2019-05-02T03:58:13.224Z,8.70
2019-05-02T03:59:04.600Z,8.60
2019-05-02T04:00:04.614Z,8.80
2019-05-02T04:01:04.638Z,8.80
2019-05-02T04:02:04.621Z,8.60
2019-05-02T04:03:04.627Z,8.60
2019-05-02T04:04:04.624Z,8.20
2019-05-02T04:05:04.650Z,8.50
2019-05-02T04:06:04.656Z,8.10
2019-05-02T04:07:04.767Z,8.20
2019-05-02T04:08:04.651Z,8.20
2019-05-02T04:09:04.663Z,8.30
2019-05-02T04:10:04.714Z,8.00
2019-05-02T04:11:04.675Z,8.20
2019-05-02T04:12:04.688Z,8.80
2019-05-02T04:13:04.690Z,8.50
2019-05-02T04:14:14.734Z,8.00
2019-05-02T04:15:04.712Z,7.90
2019-05-02T04:16:14.620Z,8.20
2019-05-02T04:17:04.743Z,8.20
2019-05-02T04:18:08.361Z,8.20
2019-05-02T04:19:04.721Z,7.90
2019-05-02T04:20:09.702Z,8.10
2019-05-02T04:21:04.714Z,7.90
2019-05-02T04:22:08.996Z,8.00
2019-05-02T04:23:04.733Z,8.20
2019-05-02T04:24:12.976Z,7.40
2019-05-02T04:25:06.477Z,8.00
2019-05-02T04:26:06.826Z,7.90
2019-05-02T04:27:04.738Z,7.70
2019-05-02T04:28:05.811Z,7.50
2019-05-02T04:29:04.824Z,7.80
2019-05-02T04:30:11.255Z,8.00
2019-05-02T04:31:04.784Z,8.00
2019-05-02T04:32:11.778Z,7.80
2019-05-02T04:33:04.798Z,7.50
2019-05-02T04:34:13.563Z,8.00
2019-05-02T04:35:04.853Z,8.10
2019-05-02T04:36:14.183Z,7.90
2019-05-02T04:37:04.856Z,7.70
2019-05-02T04:38:09.969Z,7.70
2019-05-02T04:39:05.728Z,7.50
2019-05-02T04:40:08.168Z,7.80
2019-05-02T04:41:04.833Z,7.50
2019-05-02T04:42:11.620Z,7.80
2019-05-02T04:43:10.323Z,7.90
2019-05-02T04:44:04.864Z,7.70
2019-05-02T04:45:20.650Z,8.10
2019-05-02T04:46:09.383Z,8.10
2019-05-02T04:47:10.989Z,8.10
2019-05-02T04:48:08.061Z,7.70
2019-05-02T04:49:04.901Z,7.50
2019-05-02T04:50:10.259Z,7.70
2019-05-02T04:51:09.980Z,7.40
2019-05-02T04:52:07.903Z,7.40
2019-05-02T04:53:04.908Z,7.40
2019-05-02T04:54:04.891Z,7.90
2019-05-02T04:55:14.426Z,7.90
2019-05-02T04:56:10.036Z,7.80
2019-05-02T04:57:04.914Z,7.40
2019-05-02T04:58:04.944Z,7.40
2019-05-02T04:59:13.939Z,7.40
2019-05-02T05:00:08.567Z,7.00
2019-05-02T05:01:04.948Z,7.20
2019-05-02T05:02:04.945Z,7.50
2019-05-02T05:03:07.185Z,7.10
2019-05-02T05:04:05.020Z,7.30
2019-05-02T05:05:04.972Z,6.60
2019-05-02T05:06:10.245Z,7.20
2019-05-02T05:07:05.127Z,7.10
2019-05-02T05:08:07.263Z,7.40
2019-05-02T05:09:12.685Z,7.30
2019-05-02T05:10:05.040Z,7.20
2019-05-02T05:11:04.993Z,7.40
2019-05-02T05:12:07.041Z,7.30
2019-05-02T05:13:04.997Z,7.00
2019-05-02T05:14:05.030Z,7.30
2019-05-02T05:15:05.035Z,7.20
2019-05-02T05:16:08.586Z,7.10
2019-05-02T05:17:05.022Z,7.50
2019-05-02T05:18:10.460Z,7.30
2019-05-02T05:19:05.060Z,7.40
2019-05-02T05:20:12.234Z,7.40
2019-05-02T05:21:07.755Z,7.10
2019-05-02T05:22:08.812Z,6.90
2019-05-02T05:23:05.246Z,6.70
2019-05-02T05:24:07.729Z,6.50
2019-05-02T05:25:07.291Z,6.70
2019-05-02T05:26:07.139Z,6.90
2019-05-02T05:27:05.195Z,6.90
2019-05-02T05:28:06.252Z,7.10
2019-05-02T05:29:05.238Z,6.90
2019-05-02T05:30:11.342Z,6.70
2019-05-02T05:31:07.536Z,6.70
2019-05-02T05:32:09.931Z,6.60
2019-05-02T05:33:07.589Z,6.70
2019-05-02T05:34:05.347Z,6.10
2019-05-02T05:35:08.907Z,6.00
2019-05-02T05:36:05.171Z,7.20
2019-05-02T05:37:11.628Z,6.80
2019-05-02T05:38:05.234Z,6.20
2019-05-02T05:39:08.378Z,6.70
2019-05-02T05:40:05.234Z,6.40
2019-05-02T05:41:09.076Z,6.20
2019-05-02T05:42:05.501Z,7.00
2019-05-02T05:43:13.705Z,6.10
2019-05-02T05:44:07.616Z,6.10
2019-05-02T05:45:09.712Z,5.50
2019-05-02T05:46:10.663Z,6.10
2019-05-02T05:47:07.233Z,6.40
2019-05-02T05:48:05.236Z,5.80
2019-05-02T05:49:05.207Z,5.80
2019-05-02T05:50:05.242Z,6.30
2019-05-02T05:51:07.116Z,6.30
2019-05-02T05:52:05.227Z,5.80
2019-05-02T05:53:05.260Z,5.80
2019-05-02T05:54:05.250Z,6.00
2019-05-02T05:55:05.241Z,5.90
2019-05-02T05:56:05.246Z,5.70
2019-05-02T05:57:05.252Z,5.70
2019-05-02T05:58:13.180Z,5.80
2019-05-02T05:59:05.270Z,5.80
2019-05-02T06:00:11.945Z,6.20
2019-05-02T06:01:09.863Z,5.60
2019-05-02T06:02:09.972Z,6.10
2019-05-02T06:03:12.913Z,6.20
2019-05-02T06:04:05.303Z,5.50
2019-05-02T06:05:05.306Z,5.70
2019-05-02T06:06:05.321Z,6.00
2019-05-02T06:07:07.252Z,5.60
2019-05-02T06:08:05.328Z,5.70
2019-05-02T06:09:05.359Z,5.80
2019-05-02T06:10:07.928Z,5.90
2019-05-02T06:11:05.342Z,5.90
2019-05-02T06:12:05.449Z,5.70
2019-05-02T06:13:10.897Z,5.80
2019-05-02T06:14:05.373Z,5.70
2019-05-02T06:15:05.429Z,5.70
2019-05-02T06:16:05.391Z,5.60
2019-05-02T06:17:05.385Z,6.00
2019-05-02T06:18:06.182Z,5.80
2019-05-02T06:19:05.466Z,6.00
2019-05-02T06:20:05.405Z,6.20
2019-05-02T06:21:08.678Z,6.10
2019-05-02T06:22:05.402Z,6.00
2019-05-02T06:23:05.428Z,5.80
2019-05-02T06:24:05.434Z,9.00
2019-05-02T06:25:08.775Z,6.80
2019-05-02T06:26:07.668Z,6.20
2019-05-02T06:27:05.451Z,6.40
2019-05-02T06:28:06.752Z,6.70
2019-05-02T06:29:05.447Z,6.20
2019-05-02T06:30:05.462Z,6.70
2019-05-02T06:31:07.284Z,6.60
2019-05-02T06:32:05.482Z,6.80
2019-05-02T06:33:05.496Z,7.20
2019-05-02T06:34:07.185Z,7.10
2019-05-02T06:35:05.525Z,7.20
2019-05-02T06:36:05.491Z,7.20
2019-05-02T06:37:08.094Z,6.70
2019-05-02T06:38:05.503Z,6.50
2019-05-02T06:39:05.525Z,6.30
2019-05-02T06:40:07.984Z,7.00
2019-05-02T06:41:05.531Z,6.70
2019-05-02T06:42:05.538Z,6.40
2019-05-02T06:43:09.882Z,6.50
2019-05-02T06:44:05.533Z,6.50
2019-05-02T06:45:05.563Z,6.70
2019-05-02T06:46:15.984Z,6.80
2019-05-02T06:47:05.721Z,7.40
2019-05-02T06:48:05.573Z,6.80
2019-05-02T06:49:05.566Z,6.70
2019-05-02T06:50:05.585Z,7.20
2019-05-02T06:51:05.657Z,6.90
2019-05-02T06:52:05.595Z,7.50
2019-05-02T06:53:09.509Z,7.30
2019-05-02T06:54:05.618Z,7.30
2019-05-02T06:55:05.623Z,7.70
2019-05-02T06:56:07.988Z,7.80
2019-05-02T06:57:05.660Z,6.90
2019-05-02T06:58:08.008Z,7.40
2019-05-02T06:59:05.634Z,7.70
2019-05-02T07:00:06.647Z,7.50
2019-05-02T07:01:05.661Z,7.00
2019-05-02T07:02:05.721Z,7.40
2019-05-02T07:03:10.109Z,8.00
2019-05-02T07:04:05.681Z,7.50
2019-05-02T07:05:05.708Z,8.00
2019-05-02T07:06:07.632Z,8.00
2019-05-02T07:07:05.948Z,7.90
2019-05-02T07:08:06.623Z,7.20
2019-05-02T07:09:05.760Z,8.10
2019-05-02T07:10:07.399Z,8.60
2019-05-02T07:11:05.726Z,7.90
2019-05-02T07:12:09.785Z,8.00
2019-05-02T07:13:10.770Z,7.30
2019-05-02T07:14:13.138Z,7.90
2019-05-02T07:15:08.236Z,8.20
2019-05-02T07:16:10.545Z,8.30
2019-05-02T07:17:06.022Z,8.30
2019-05-02T07:18:10.573Z,8.60
2019-05-02T07:19:05.781Z,8.40
2019-05-02T07:20:05.915Z,8.40
2019-05-02T07:21:05.806Z,8.70
2019-05-02T07:22:05.799Z,8.50
2019-05-02T07:23:10.550Z,8.40
2019-05-02T07:24:05.842Z,8.00
2019-05-02T07:25:06.861Z,8.70
2019-05-02T07:26:05.816Z,7.60
2019-05-02T07:27:05.862Z,8.40
2019-05-02T07:28:09.449Z,8.80
2019-05-02T07:29:05.872Z,8.00
2019-05-02T07:30:05.866Z,8.40
2019-05-02T07:31:06.698Z,9.00
2019-05-02T07:32:05.866Z,8.70
2019-05-02T07:33:05.931Z,8.90
2019-05-02T07:34:08.065Z,9.10
2019-05-02T07:35:05.895Z,9.00
2019-05-02T07:36:05.901Z,9.00
2019-05-02T07:37:08.549Z,8.50
2019-05-02T07:38:05.910Z,9.20
2019-05-02T07:39:06.410Z,9.60
2019-05-02T07:40:05.945Z,9.10
2019-05-02T07:41:06.006Z,9.10
2019-05-02T07:42:07.840Z,10.40
2019-05-02T07:43:05.969Z,10.20
2019-05-02T07:44:05.958Z,9.70
2019-05-02T07:45:09.475Z,9.70
2019-05-02T07:46:05.988Z,11.20
2019-05-02T07:47:05.970Z,9.70
2019-05-02T07:48:06.005Z,9.60
2019-05-02T07:49:05.984Z,8.90
2019-05-02T07:50:10.503Z,9.70
2019-05-02T07:51:05.995Z,9.70
2019-05-02T07:52:06.001Z,9.50
2019-05-02T07:53:09.522Z,9.40
2019-05-02T07:54:06.024Z,8.50
2019-05-02T07:55:07.402Z,8.80
2019-05-02T07:56:06.053Z,9.00
2019-05-02T07:57:06.053Z,8.80
2019-05-02T07:58:07.001Z,8.50
2019-05-02T07:59:06.063Z,8.70
2019-05-02T08:00:06.055Z,9.20
2019-05-02T08:01:08.089Z,8.60
2019-05-02T08:02:06.069Z,8.20
2019-05-02T08:03:06.078Z,8.90
2019-05-02T08:04:11.082Z,8.70
2019-05-02T08:05:08.730Z,9.50
2019-05-02T08:06:06.131Z,9.10
2019-05-02T08:07:06.120Z,8.80
2019-05-02T08:08:06.110Z,9.60
2019-05-02T08:09:07.187Z,9.70
2019-05-02T08:10:06.133Z,9.60
2019-05-02T08:11:06.135Z,9.10
2019-05-02T08:12:06.174Z,8.80
2019-05-02T08:13:06.154Z,9.10
2019-05-02T08:14:06.154Z,9.20
2019-05-02T08:15:07.499Z,8.70
2019-05-02T08:16:06.180Z,8.80
2019-05-02T08:17:16.102Z,9.30
2019-05-02T08:18:06.194Z,9.20
2019-05-02T08:19:06.882Z,9.20
2019-05-02T08:20:08.557Z,10.00
2019-05-02T08:21:06.198Z,10.00
2019-05-02T08:22:13.344Z,10.10
2019-05-02T08:23:06.263Z,9.60
2019-05-02T08:24:06.238Z,10.10
2019-05-02T08:25:10.570Z,10.60
2019-05-02T08:26:06.249Z,10.50
2019-05-02T08:27:06.256Z,11.00
2019-05-02T08:28:10.178Z,9.80
2019-05-02T08:29:06.256Z,11.00
2019-05-02T08:30:06.276Z,11.10
2019-05-02T08:31:06.312Z,11.80
2019-05-02T08:32:06.277Z,10.40
2019-05-02T08:33:06.314Z,10.90
2019-05-02T08:34:14.768Z,11.00
2019-05-02T08:35:06.300Z,11.30
2019-05-02T08:36:06.319Z,11.50
2019-05-02T08:37:06.333Z,10.80
2019-05-02T08:38:06.374Z,11.10
2019-05-02T08:39:06.337Z,10.90
2019-05-02T08:40:10.482Z,10.70
2019-05-02T08:41:06.340Z,11.80
2019-05-02T08:42:06.376Z,12.10
2019-05-02T08:43:09.069Z,11.00
2019-05-02T08:44:06.383Z,11.50
2019-05-02T08:45:06.386Z,11.30
2019-05-02T08:46:09.468Z,11.40
2019-05-02T08:47:18.400Z,11.80
2019-05-02T08:48:06.564Z,11.30
2019-05-02T08:49:06.466Z,11.40
2019-05-02T08:50:07.792Z,11.80
2019-05-02T08:51:06.409Z,12.00
2019-05-02T08:52:06.427Z,11.40
2019-05-02T08:53:06.453Z,11.70
2019-05-02T08:54:06.456Z,11.30
2019-05-02T08:55:09.910Z,11.70
2019-05-02T08:56:06.464Z,11.10
2019-05-02T08:57:06.489Z,12.00
2019-05-02T08:58:13.996Z,11.50
2019-05-02T08:59:06.475Z,11.80
2019-05-02T09:00:06.573Z,12.00
2019-05-02T09:01:09.111Z,12.00
2019-05-02T09:02:06.512Z,12.00
2019-05-02T09:03:06.512Z,12.60
2019-05-02T09:04:06.524Z,12.30
2019-05-02T09:05:06.550Z,11.70
2019-05-02T09:06:06.626Z,11.70
2019-05-02T09:07:06.609Z,11.20
2019-05-02T09:08:09.140Z,11.70
2019-05-02T09:09:06.581Z,11.30
2019-05-02T09:10:07.875Z,11.30
2019-05-02T09:11:06.652Z,11.40
2019-05-02T09:12:12.215Z,12.00
2019-05-02T09:13:06.589Z,11.10
2019-05-02T09:14:06.586Z,11.60
2019-05-02T09:15:06.620Z,11.60
2019-05-02T09:16:06.617Z,11.20
2019-05-02T09:17:13.510Z,11.10
2019-05-02T09:18:06.683Z,11.50
2019-05-02T09:19:06.637Z,11.90
2019-05-02T09:20:15.028Z,11.80
2019-05-02T09:21:06.658Z,12.30
2019-05-02T09:22:07.592Z,11.80
2019-05-02T09:23:06.669Z,11.60
2019-05-02T09:24:08.536Z,11.60
2019-05-02T09:25:06.704Z,11.10
2019-05-02T09:26:06.686Z,11.60
2019-05-02T09:27:06.692Z,11.70
2019-05-02T09:28:06.718Z,11.70
2019-05-02T09:29:06.777Z,11.90
2019-05-02T09:30:06.709Z,12.00
2019-05-02T09:31:07.081Z,12.40
2019-05-02T09:32:06.772Z,12.90
2019-05-02T09:33:06.875Z,11.70
2019-05-02T09:34:06.758Z,12.40
2019-05-02T09:35:06.766Z,12.40
2019-05-02T09:36:06.804Z,12.40
2019-05-02T09:37:06.833Z,12.80
2019-05-02T09:38:06.831Z,12.00
2019-05-02T09:39:06.789Z,12.80
2019-05-02T09:40:11.194Z,12.50
2019-05-02T09:41:16.059Z,12.40
2019-05-02T09:42:11.272Z,12.70
2019-05-02T09:43:07.970Z,12.40
2019-05-02T09:44:08.929Z,12.20
2019-05-02T09:45:07.392Z,12.40
2019-05-02T09:46:07.287Z,13.10
2019-05-02T09:47:06.859Z,13.00
2019-05-02T09:48:08.070Z,12.70
2019-05-02T09:49:13.415Z,12.50
2019-05-02T09:50:06.921Z,12.70
2019-05-02T09:51:12.882Z,12.60
2019-05-02T09:52:06.929Z,13.10
2019-05-02T09:53:06.981Z,12.80
2019-05-02T09:54:06.925Z,12.50
2019-05-02T09:55:06.952Z,12.90
2019-05-02T09:56:06.932Z,12.60
2019-05-02T09:57:06.940Z,13.00
2019-05-02T09:58:10.411Z,12.90
2019-05-02T09:59:24.334Z,12.90
2019-05-02T10:00:06.966Z,12.40
2019-05-02T10:01:06.961Z,12.80
2019-05-02T10:02:07.048Z,13.10
2019-05-02T10:03:07.058Z,13.10
2019-05-02T10:04:07.101Z,13.10
2019-05-02T10:05:07.029Z,13.20
2019-05-02T10:06:08.358Z,13.50
2019-05-02T10:07:07.036Z,12.80
2019-05-02T10:08:10.746Z,13.20
2019-05-02T10:09:07.037Z,12.80
2019-05-02T10:10:07.223Z,13.10
2019-05-02T10:11:07.064Z,13.40
2019-05-02T10:12:07.058Z,12.90
2019-05-02T10:13:07.307Z,12.50
2019-05-02T10:14:07.176Z,13.00
2019-05-02T10:15:07.466Z,12.60
2019-05-02T10:16:07.209Z,13.20
2019-05-02T10:17:07.484Z,13.30
2019-05-02T10:18:11.204Z,13.90
2019-05-02T10:19:10.663Z,14.30
2019-05-02T10:20:07.258Z,13.40
2019-05-02T10:21:07.734Z,13.10
2019-05-02T10:22:07.236Z,13.90
2019-05-02T10:23:12.072Z,13.80
2019-05-02T10:24:07.243Z,14.00
2019-05-02T10:25:07.250Z,14.20
2019-05-02T10:26:07.207Z,14.70
2019-05-02T10:27:08.609Z,14.20
2019-05-02T10:28:10.098Z,13.60
2019-05-02T10:29:07.297Z,14.30
2019-05-02T10:30:11.898Z,13.90
2019-05-02T10:31:07.220Z,13.90
2019-05-02T10:32:07.688Z,14.40
2019-05-02T10:33:07.271Z,13.60
2019-05-02T10:34:08.422Z,13.40
2019-05-02T10:35:07.248Z,13.80
2019-05-02T10:36:11.933Z,13.60
2019-05-02T10:37:07.261Z,13.80
2019-05-02T10:38:09.567Z,13.70
2019-05-02T10:39:07.274Z,14.30
2019-05-02T10:40:07.823Z,13.80
2019-05-02T10:41:07.380Z,13.80
2019-05-02T10:42:07.392Z,13.90
2019-05-02T10:43:07.345Z,13.80
2019-05-02T10:44:07.324Z,13.30
2019-05-02T10:45:12.990Z,13.10
2019-05-02T10:46:07.332Z,14.20
2019-05-02T10:47:07.389Z,14.80
2019-05-02T10:48:07.373Z,13.40
2019-05-02T10:49:07.378Z,14.00
2019-05-02T10:50:07.389Z,14.00
2019-05-02T10:51:07.407Z,14.30
2019-05-02T10:52:07.398Z,14.10
2019-05-02T10:53:14.298Z,14.30
2019-05-02T10:54:07.420Z,14.10
2019-05-02T10:55:07.436Z,13.60
2019-05-02T10:56:07.476Z,13.70
2019-05-02T10:57:07.444Z,12.70
2019-05-02T10:58:07.456Z,13.30
2019-05-02T10:59:07.475Z,14.40
2019-05-02T11:00:07.477Z,13.60
2019-05-02T11:01:07.513Z,13.50
2019-05-02T11:02:07.480Z,13.10
2019-05-02T11:03:07.497Z,14.30
2019-05-02T11:04:07.509Z,13.90
2019-05-02T11:05:07.497Z,13.60
2019-05-02T11:06:07.917Z,17.20
2019-05-02T11:07:07.552Z,13.70
2019-05-02T11:08:07.522Z,15.10
2019-05-02T11:09:07.532Z,13.90
2019-05-02T11:10:07.542Z,13.80
2019-05-02T11:11:07.574Z,13.30
2019-05-02T11:12:07.650Z,13.30
2019-05-02T11:13:07.554Z,13.60
2019-05-02T11:14:07.565Z,12.70
2019-05-02T11:15:07.600Z,14.20
2019-05-02T11:16:07.581Z,13.50
2019-05-02T11:17:09.108Z,13.40
2019-05-02T11:18:07.639Z,14.30
2019-05-02T11:19:07.644Z,13.00
2019-05-02T11:20:07.648Z,13.60
2019-05-02T11:21:08.374Z,13.40
2019-05-02T11:22:07.655Z,14.10
2019-05-02T11:23:07.676Z,13.40
2019-05-02T11:24:07.677Z,13.10
2019-05-02T11:25:07.729Z,14.10
2019-05-02T11:26:07.679Z,13.70
2019-05-02T11:27:08.258Z,13.80
2019-05-02T11:28:07.716Z,14.00
2019-05-02T11:29:07.731Z,13.60
2019-05-02T11:30:07.777Z,13.40
2019-05-02T11:31:10.055Z,13.40
2019-05-02T11:32:07.726Z,13.50
2019-05-02T11:33:07.739Z,13.80
2019-05-02T11:34:07.736Z,13.00
2019-05-02T11:35:07.806Z,14.20
2019-05-02T11:36:07.769Z,13.50
2019-05-02T11:37:07.770Z,13.70
2019-05-02T11:38:07.983Z,13.70
2019-05-02T11:39:15.868Z,12.80
2019-05-02T11:40:08.431Z,13.20
2019-05-02T11:41:07.837Z,13.60
2019-05-02T11:42:07.820Z,13.40
2019-05-02T11:43:07.845Z,13.10
2019-05-02T11:44:07.815Z,13.00
2019-05-02T11:45:07.864Z,13.20
2019-05-02T11:46:07.885Z,13.40
2019-05-02T11:47:07.874Z,13.70
2019-05-02T11:48:09.199Z,13.80
2019-05-02T11:49:07.867Z,13.80
2019-05-02T11:50:07.891Z,13.90
2019-05-02T11:51:14.904Z,14.00
2019-05-02T11:52:07.916Z,13.70
2019-05-02T11:53:22.267Z,14.00
2019-05-02T11:54:09.434Z,13.70
2019-05-02T11:55:07.952Z,13.70
2019-05-02T11:56:10.923Z,13.30
2019-05-02T11:57:07.947Z,13.40
2019-05-02T11:58:10.142Z,13.10
2019-05-02T11:59:07.965Z,13.30
2019-05-02T12:00:09.009Z,12.90
2019-05-02T12:01:08.006Z,13.20
2019-05-02T12:02:09.486Z,12.60
2019-05-02T12:03:08.132Z,12.70
2019-05-02T12:04:12.140Z,13.00
2019-05-02T12:05:08.014Z,13.00
2019-05-02T12:06:12.717Z,12.60
2019-05-02T12:07:08.046Z,13.20
2019-05-02T12:08:09.511Z,13.60
2019-05-02T12:09:08.202Z,12.80
2019-05-02T12:10:08.057Z,13.00
2019-05-02T12:11:08.367Z,12.70
2019-05-02T12:12:08.098Z,14.70
2019-05-02T12:13:11.878Z,13.80
2019-05-02T12:14:08.160Z,12.60
2019-05-02T12:15:08.141Z,12.50
2019-05-02T12:16:08.598Z,12.90
2019-05-02T12:17:08.150Z,12.30
2019-05-02T12:18:08.189Z,12.50
2019-05-02T12:19:11.912Z,12.90
2019-05-02T12:20:08.153Z,12.50
2019-05-02T12:21:08.204Z,12.70
2019-05-02T12:22:11.861Z,16.30
2019-05-02T12:23:09.200Z,13.00
2019-05-02T12:24:08.179Z,13.10
2019-05-02T12:25:08.248Z,12.70
2019-05-02T12:26:08.197Z,12.80
2019-05-02T12:27:08.197Z,13.10
2019-05-02T12:28:08.252Z,13.00
2019-05-02T12:29:08.234Z,13.40
2019-05-02T12:30:08.355Z,12.80
2019-05-02T12:31:12.421Z,13.00
2019-05-02T12:32:08.267Z,13.30
2019-05-02T12:33:08.284Z,13.00
2019-05-02T12:34:08.282Z,11.90
2019-05-02T12:35:08.299Z,12.70
2019-05-02T12:36:08.295Z,12.50
2019-05-02T12:37:08.319Z,13.00
2019-05-02T12:38:08.293Z,14.70
2019-05-02T12:39:08.342Z,14.00
2019-05-02T12:40:08.304Z,13.60
2019-05-02T12:41:19.495Z,12.60
2019-05-02T12:42:08.618Z,12.90
2019-05-02T12:43:08.342Z,13.10
2019-05-02T12:44:08.375Z,13.00
2019-05-02T12:45:08.422Z,14.10
2019-05-02T12:46:08.382Z,15.00
2019-05-02T12:47:08.388Z,12.80
2019-05-02T12:48:08.400Z,12.60
2019-05-02T12:49:21.928Z,13.00
2019-05-02T12:50:08.430Z,12.60
2019-05-02T12:51:08.412Z,12.70
2019-05-02T12:52:08.433Z,12.00
2019-05-02T12:53:08.439Z,13.00
2019-05-02T12:54:08.433Z,13.90
2019-05-02T12:55:08.479Z,13.30
2019-05-02T12:56:08.484Z,12.70
2019-05-02T12:57:08.481Z,12.40
2019-05-02T12:58:08.471Z,12.30
2019-05-02T12:59:08.506Z,11.80
2019-05-02T13:00:08.523Z,12.40
2019-05-02T13:01:08.597Z,11.50
2019-05-02T13:02:08.527Z,11.20